Etusivu
METAR-TAF:

METAR-TAF

Lentoasemat :

Alpnach, Sveitsi

Leveyspiiri: 46-56-19N, Pituuspiiri: 8-17-03E, korkeus merenpinnasta: 440 m

Tämänhetkinen sää

Tämä raportti tehtiin 34 minuuttia sitten, kello 11.50 UTC
Tuuli 7 kn koillisesta, vaihdellen luoteen ja idän välillä
Lämpötila 11°C
Kosteus 58%
Ilmanpaine 1033 hPa
Näkyvyys 10 km tai enemmän
Hajonneita pilviä 10000 ft:n korkeudessa

METAR: LSMA 221150Z AUTO 05007KT 320V080 9999NDV BKN100 11/03 Q1033 RMK

Aika: 13:24 (12:24 UTC)


TAF: puuttuu

Säähavainnot ja -ennusteet yli 4000 lentoasemalta (METAR- ja TAF-raportit).

Käytössä olevat sääasemat on merkitty karttaan keltaisilla ja punaisilla pisteillä.

Aseta hiiri pisteen päälle nähdäksesi sääaseman nimen.

Klikkaa sitten nähdäksesi säähavainnot ja -ennusteet.

Kartan vaihtaminen: klikkaa mustalla rastilla varustettuja vihreitä pisteitä, niin voit zoomata sisään; viivalla varustettua vihreää pistettä, niin voit zoomata ulos tai vihreitä nuolia, niin pääset viereisille kartoille.


METAR-TAF: